Noruega — CSDJ — position and weather

sailwx.info

Track history (hours):
 
Tides and Currents Weather Stations Pressure Air Temp Water Temp Dewpoint Dewpoint Depression Visibility Wind Speed Wind Dir Waves Ship Positions

Oceanographic research ship Noruega (Portugal)

Detailed information on ship capabilities available from University of Delaware's Ocean Information Center.

Last reported at 2017-Nov-19 18:52 UTC. Time now 2017-Nov-21 00:42 UTC.
Position N 39°39' W 009°36'.

Length 47 m; draft 5.3 m.

Type: Ship. MMSI: 263601000.

Date/timePositionNaut miles runAvg speedWind from/ knotsBaromVisibWave heightAir tempDewpointWater temp
2017-Nov-19 18:52N 39°39' W 009°36'2 4.3
2017-Nov-19 18:30N 39°39' W 009°37'21 0.4
2017-Nov-17 15:42N 39°60' W 009°32'  
2017-Nov-14 02:51N 41°09' W 008°54'2 5.3
2017-Nov-14 02:28N 41°09' W 008°52'2 4.3
2017-Nov-14 01:58N 41°09' W 008°49'0 0.7
2017-Nov-14 01:29N 41°09' W 008°48'0 0.6
2017-Nov-14 00:58N 41°09' W 008°48'0 0.2
2017-Nov-14 00:30N 41°09' W 008°48'0 0.9
2017-Nov-14 00:00N 41°09' W 008°48'0 0.4
2017-Nov-13 23:30N 41°09' W 008°48'0 0.3
2017-Nov-13 23:00N 41°08' W 008°48'0 0.3
2017-Nov-13 22:30N 41°08' W 008°49'0 0.1
2017-Nov-13 22:00N 41°08' W 008°49'  
2017-Nov-10 07:29N 39°34' W 009°22'3 5.6
2017-Nov-10 06:55N 39°31' W 009°23'3 6.1
2017-Nov-10 06:30N 39°28' W 009°25'5 6.2
2017-Nov-10 05:46N 39°24' W 009°27'2 6.3
2017-Nov-10 05:30N 39°22' W 009°27'3 6.7
2017-Nov-10 05:00N 39°19' W 009°29'3 6.6
2017-Nov-10 04:30N 39°16' W 009°30'3 6.6
2017-Nov-10 04:00N 39°13' W 009°32'3 6.5
2017-Nov-10 03:31N 39°10' W 009°33'3 6.5
2017-Nov-10 03:00N 39°07' W 009°35'3 6.3
2017-Nov-10 02:30N 39°04' W 009°36'3 6.3
2017-Nov-10 02:00N 39°01' W 009°37'3 6.4
2017-Nov-10 01:31N 38°58' W 009°39'3 5.9
2017-Nov-10 01:00N 38°55' W 009°39'3 6.0
2017-Nov-10 00:31N 38°52' W 009°38'3 5.8
2017-Nov-10 00:00N 38°50' W 009°37'3 5.8
2017-Nov-09 23:30N 38°47' W 009°36'3 5.9
2017-Nov-09 23:01N 38°44' W 009°34'3 5.9
2017-Nov-09 22:30N 38°41' W 009°33'3 6.0
2017-Nov-09 22:01N 38°39' W 009°31'3 5.9
2017-Nov-09 21:30N 38°37' W 009°28'3 6.7
2017-Nov-09 21:00N 38°36' W 009°24'4 8.0
2017-Nov-09 20:30N 38°39' W 009°20'4 7.4
2017-Nov-09 20:00N 38°41' W 009°16'4 6.9
2017-Nov-09 19:30N 38°41' W 009°11'2 3.2
2017-Nov-09 18:59N 38°42' W 009°10'  
Track history (hours):
 
Tides and Currents Weather Stations Pressure Air Temp Water Temp Dewpoint Dewpoint Depression Visibility Wind Speed Wind Dir Waves Ship Positions

Oceanographic research ship Noruega (Portugal)

Detailed information on ship capabilities available from University of Delaware's Ocean Information Center.

Last reported at 2017-Nov-19 18:52 UTC. Time now 2017-Nov-21 00:42 UTC.
Position N 39°39' W 009°36'.

Length 47 m; draft 5.3 m.

Type: Ship. MMSI: 263601000.

Date/timePositionNaut miles runAvg speedWind from/ knotsBaromVisibWave heightAir tempDewpointWater temp
2017-Nov-19 18:52N 39°39' W 009°36'2 4.3
2017-Nov-19 18:30N 39°39' W 009°37'21 0.4
2017-Nov-17 15:42N 39°60' W 009°32'  
2017-Nov-14 02:51N 41°09' W 008°54'2 5.3
2017-Nov-14 02:28N 41°09' W 008°52'2 4.3
2017-Nov-14 01:58N 41°09' W 008°49'0 0.7
2017-Nov-14 01:29N 41°09' W 008°48'0 0.6
2017-Nov-14 00:58N 41°09' W 008°48'0 0.2
2017-Nov-14 00:30N 41°09' W 008°48'0 0.9
2017-Nov-14 00:00N 41°09' W 008°48'0 0.4
2017-Nov-13 23:30N 41°09' W 008°48'0 0.3
2017-Nov-13 23:00N 41°08' W 008°48'0 0.3
2017-Nov-13 22:30N 41°08' W 008°49'0 0.1
2017-Nov-13 22:00N 41°08' W 008°49'  
2017-Nov-10 07:29N 39°34' W 009°22'3 5.6
2017-Nov-10 06:55N 39°31' W 009°23'3 6.1
2017-Nov-10 06:30N 39°28' W 009°25'5 6.2
2017-Nov-10 05:46N 39°24' W 009°27'2 6.3
2017-Nov-10 05:30N 39°22' W 009°27'3 6.7
2017-Nov-10 05:00N 39°19' W 009°29'3 6.6
2017-Nov-10 04:30N 39°16' W 009°30'3 6.6
2017-Nov-10 04:00N 39°13' W 009°32'3 6.5
2017-Nov-10 03:31N 39°10' W 009°33'3 6.5
2017-Nov-10 03:00N 39°07' W 009°35'3 6.3
2017-Nov-10 02:30N 39°04' W 009°36'3 6.3
2017-Nov-10 02:00N 39°01' W 009°37'3 6.4
2017-Nov-10 01:31N 38°58' W 009°39'3 5.9
2017-Nov-10 01:00N 38°55' W 009°39'3 6.0
2017-Nov-10 00:31N 38°52' W 009°38'3 5.8
2017-Nov-10 00:00N 38°50' W 009°37'3 5.8
2017-Nov-09 23:30N 38°47' W 009°36'3 5.9
2017-Nov-09 23:01N 38°44' W 009°34'3 5.9
2017-Nov-09 22:30N 38°41' W 009°33'3 6.0
2017-Nov-09 22:01N 38°39' W 009°31'3 5.9
2017-Nov-09 21:30N 38°37' W 009°28'3 6.7
2017-Nov-09 21:00N 38°36' W 009°24'4 8.0
2017-Nov-09 20:30N 38°39' W 009°20'4 7.4
2017-Nov-09 20:00N 38°41' W 009°16'4 6.9
2017-Nov-09 19:30N 38°41' W 009°11'2 3.2
2017-Nov-09 18:59N 38°42' W 009°10'  

Dump ship's entire track history